If you wish to contribute or participate in the discussions about articles you are invited to join SKYbrary as a registered user

 Actions

Angel S Adami Airport

From SKYbrary Wiki

SUAA
Airport
ICAO: SUAA
Summary
Name Angel S Adami Airport
Region
Territory Uruguay UY.gif
Location , Montevideo
Serving Montevideo
Elevation 53.035 m
174 ft
174 ft53.035 m
Type medium airport
Coordinates 34° 47' 21.15" S, 56° 15' 52.93" W
Runways
Designator Length Width Surface ROPS
18/36 1250 m4,101.05 ft
23 m75.459 ft
CON /


METAR
Observation SUAA 061400Z 12016G28KT 7000 4000NW -DZ BKN008 OVC070 16/14 Q1014
Station Melilla
Date/Time 06 June 2020 14:00:00
Wind direction 120°
Wind speed 16 kts
Lowest cloud amount broken clouds
Temperature 16°C
Dew point 14°C
Humidity 87%
QNH 1014 hPa
Weather condition n/a